AirNav   Pilot Hours Calculator
 
 953 users online  

5CL0 Grupe Ranch Airport
Mariposa, California, USA

GOING TO MARIPOSA?


FAA INFORMATION EFFECTIVE 07 OCTOBER 2021

Location

FAA Identifier: 5CL0
Lat/Long: 37-20-25.7900N 119-51-43.5800W
37-20.429833N 119-51.726333W
37.3404972,-119.8621056
(estimated)
Elevation: 1625 ft. / 495 m (estimated)
Variation: 15E (1990)
From city: 10 miles SE of MARIPOSA, CA
Time zone: UTC -7 (UTC -8 during Standard Time)
Zip code: 95338

Airport Operations

Airport use: Private use. Permission required prior to landing
Activation date: 07/1993
Control tower: no
ARTCC: OAKLAND CENTER
FSS: RANCHO MURIETA FLIGHT SERVICE STATION
Attendance: UNATNDD
Wind indicator: yes
Segmented circle: no

Airport Communications

WX AWOS-3 at MPI (13 nm NW): 135.6 (209-966-2912)

Nearby radio navigation aids

VOR radial/distance  VOR name  Freq  Var
FRAr301/19.1FRIANT VORTAC115.6017E
HYPr059/26.7EL NIDO VOR/DME114.2015E

Airport Services

Runway Information

Runway 9/27

Dimensions: 2800 x 50 ft. / 853 x 15 m
Surface: asphalt
RUNWAY 9  RUNWAY 27
Traffic pattern: leftleft
Obstructions: none15 ft. pline, 100 ft. from runway

Airport Ownership and Management from official FAA records

Ownership: Privately-owned
Owner: GREENLAW FRITZ GRUPE JR
PO BOX 7576
STOCKTON, CA 95267
Phone 209-366-1400
Manager: KELLY WILLIAMS
PO BOX 207007
STOCKTON, CA 95267
Phone 209-401-3094
209-966-5578

Additional Remarks

FOR CD CTC OAKLAND ARTCC AT 510-745-3380.

Instrument Procedures

There are no published instrument procedures at 5CL0.

Some nearby airports with instrument procedures:

KMPI - Mariposa-Yosemite Airport (13 nm NW)
KMAE - Madera Municipal Airport (24 nm SW)
KMCE - Merced Regional Airport/Macready Field (31 nm W)
KMER - Castle Airport (34 nm W)
KFAT - Fresno Yosemite International Airport (35 nm S)
 
Loc | Ops | Rwys | IFR | FBO | Links
Com | Nav | Svcs | Stats | Notes
Area around 5CL0 (Grupe Ranch Airport)
 
Road maps at: MapQuest Bing Google
 
Aerial photo
No photo
 
Sectional chart

 
Airport distance calculator
Flying to Grupe Ranch Airport? Find the distance to fly.

From to 5CL0

Sunrise and sunset
Times for 27-Oct-2021
 Local
(UTC-7)
 Zulu
(UTC)
Morning civil twilight06:5313:53
Sunrise07:2014:20
Sunset18:0701:07
Evening civil twilight18:3301:33

Current date and time
Zulu (UTC)  28-Oct-2021 02:26:02
Local (UTC-7)  27-Oct-2021 19:26:02
 
METAR
KMAE 
25nm SW 
280153Z AUTO 24003KT 10SM CLR 16/13 A3024 RMK AO2 SLP239 T01560128
KMCE 
31nm W 
280153Z AUTO 21004KT 10SM CLR 18/14 A3022 RMK AO2 SLP233 T01830144
KMER 
34nm W 
280145Z 25003KT 10SM CLR 18/17 A2023
KFAT 
34nm S 
280153Z 00000KT 10SM FEW200 19/11 A3023 RMK AO2 SLP237 T01890106
KO22 
49nm NW 
280155Z AUTO 00000KT 10SM CLR 15/12 A3024 RMK A01
TAF
KMCE 
31nm W 
271720Z 2718/2818 VRB05KT P6SM SKC FM281300 VRB03KT 5SM BR SKC
KMER 
34nm W 
271720Z 2718/2818 VRB05KT P6SM SKC FM281300 VRB03KT 5SM BR SKC
KFAT 
34nm S 
271720Z 2718/2818 VRB05KT P6SM SKC
NOTAMs
Click for the latest NOTAMs
NOTAMs are issued by the DoD/FAA and will open in a separate window not controlled by AirNav.

 

 
 

Would you like to see your business listed on this page?

 If your business provides an interesting product or service to pilots, flight crews, aircraft, or users of the Grupe Ranch Airport, you should consider listing it here.  To start the listing process, click on the button below
 
Add a business
 

Other Pages about Grupe Ranch Airport

Update a link
 
Copyright © AirNav, LLC. All rights reserved. Privacy Policy  Contact